sensor_id;sensor_type;location;lat;lon;timestamp;temperature;humidity
11965;DHT22;6042;41.326;19.826;2023-09-19T00:02:03;24.30;99.90
11965;DHT22;6042;41.326;19.826;2023-09-19T00:04:34;24.30;99.90
11965;DHT22;6042;41.326;19.826;2023-09-19T00:07:07;24.30;99.90
11965;DHT22;6042;41.326;19.826;2023-09-19T00:09:36;24.30;99.90
11965;DHT22;6042;41.326;19.826;2023-09-19T00:12:06;24.10;99.90
11965;DHT22;6042;41.326;19.826;2023-09-19T00:14:38;24.00;99.90
11965;DHT22;6042;41.326;19.826;2023-09-19T00:17:07;24.00;99.90
11965;DHT22;6042;41.326;19.826;2023-09-19T00:19:37;23.90;99.90
11965;DHT22;6042;41.326;19.826;2023-09-19T00:22:06;23.90;99.90
11965;DHT22;6042;41.326;19.826;2023-09-19T00:24:35;23.90;99.90
11965;DHT22;6042;41.326;19.826;2023-09-19T00:27:04;23.90;99.90
11965;DHT22;6042;41.326;19.826;2023-09-19T00:29:33;24.00;99.90
11965;DHT22;6042;41.326;19.826;2023-09-19T00:32:08;24.00;99.90
11965;DHT22;6042;41.326;19.826;2023-09-19T00:34:37;24.00;99.90
11965;DHT22;6042;41.326;19.826;2023-09-19T00:37:06;24.00;99.90
11965;DHT22;6042;41.326;19.826;2023-09-19T00:39:35;24.00;99.90
11965;DHT22;6042;41.326;19.826;2023-09-19T00:42:04;24.00;99.90
11965;DHT22;6042;41.326;19.826;2023-09-19T00:44:35;24.00;99.90
11965;DHT22;6042;41.326;19.826;2023-09-19T00:47:06;24.00;99.90
11965;DHT22;6042;41.326;19.826;2023-09-19T00:49:37;23.90;99.90
11965;DHT22;6042;41.326;19.826;2023-09-19T00:52:06;24.00;99.90
11965;DHT22;6042;41.326;19.826;2023-09-19T00:54:37;24.00;99.90
11965;DHT22;6042;41.326;19.826;2023-09-19T00:57:07;23.90;99.90
11965;DHT22;6042;41.326;19.826;2023-09-19T00:59:37;24.00;99.90
11965;DHT22;6042;41.326;19.826;2023-09-19T01:02:07;24.00;99.90
11965;DHT22;6042;41.326;19.826;2023-09-19T01:04:37;24.00;99.90
11965;DHT22;6042;41.326;19.826;2023-09-19T01:07:06;23.90;99.90
11965;DHT22;6042;41.326;19.826;2023-09-19T01:09:36;23.90;99.90
11965;DHT22;6042;41.326;19.826;2023-09-19T01:12:07;23.90;99.90
11965;DHT22;6042;41.326;19.826;2023-09-19T01:14:42;24.00;99.90
11965;DHT22;6042;41.326;19.826;2023-09-19T01:17:22;24.00;99.90
11965;DHT22;6042;41.326;19.826;2023-09-19T01:20:20;23.90;99.90
11965;DHT22;6042;41.326;19.826;2023-09-19T01:23:07;23.80;99.90
11965;DHT22;6042;41.326;19.826;2023-09-19T01:26:05;23.80;99.90
11965;DHT22;6042;41.326;19.826;2023-09-19T01:29:12;23.70;99.90
11965;DHT22;6042;41.326;19.826;2023-09-19T01:31:43;23.70;99.90
11965;DHT22;6042;41.326;19.826;2023-09-19T01:34:13;23.70;99.90
11965;DHT22;6042;41.326;19.826;2023-09-19T01:36:42;23.70;99.90
11965;DHT22;6042;41.326;19.826;2023-09-19T01:39:13;23.70;99.90
11965;DHT22;6042;41.326;19.826;2023-09-19T01:41:54;23.60;99.90
11965;DHT22;6042;41.326;19.826;2023-09-19T01:44:31;23.60;99.90
11965;DHT22;6042;41.326;19.826;2023-09-19T01:47:08;23.60;99.80
11965;DHT22;6042;41.326;19.826;2023-09-19T01:49:44;23.60;99.40
11965;DHT22;6042;41.326;19.826;2023-09-19T01:52:20;23.60;99.30
11965;DHT22;6042;41.326;19.826;2023-09-19T01:54:51;23.60;99.20
11965;DHT22;6042;41.326;19.826;2023-09-19T01:57:27;23.70;99.20
11965;DHT22;6042;41.326;19.826;2023-09-19T02:00:02;23.70;99.20
11965;DHT22;6042;41.326;19.826;2023-09-19T02:02:44;23.70;99.30
11965;DHT22;6042;41.326;19.826;2023-09-19T02:05:22;23.60;99.40
11965;DHT22;6042;41.326;19.826;2023-09-19T02:07:52;23.60;99.30
11965;DHT22;6042;41.326;19.826;2023-09-19T02:10:22;23.70;99.30
11965;DHT22;6042;41.326;19.826;2023-09-19T02:12:51;23.60;99.20
11965;DHT22;6042;41.326;19.826;2023-09-19T02:15:20;23.70;99.10
11965;DHT22;6042;41.326;19.826;2023-09-19T02:17:51;23.60;99.50
11965;DHT22;6042;41.326;19.826;2023-09-19T02:20:20;23.60;99.40
11965;DHT22;6042;41.326;19.826;2023-09-19T02:22:49;23.50;99.50
11965;DHT22;6042;41.326;19.826;2023-09-19T02:25:19;23.50;99.60
11965;DHT22;6042;41.326;19.826;2023-09-19T02:27:48;23.50;99.50
11965;DHT22;6042;41.326;19.826;2023-09-19T02:30:23;23.50;99.40
11965;DHT22;6042;41.326;19.826;2023-09-19T02:32:54;23.60;99.40
11965;DHT22;6042;41.326;19.826;2023-09-19T02:35:24;23.60;99.50
11965;DHT22;6042;41.326;19.826;2023-09-19T02:37:54;23.70;99.60
11965;DHT22;6042;41.326;19.826;2023-09-19T02:40:23;23.70;99.50
11965;DHT22;6042;41.326;19.826;2023-09-19T02:42:55;23.70;99.60
11965;DHT22;6042;41.326;19.826;2023-09-19T02:45:26;23.70;99.80
11965;DHT22;6042;41.326;19.826;2023-09-19T02:47:58;23.60;99.90
11965;DHT22;6042;41.326;19.826;2023-09-19T02:50:27;23.60;99.90
11965;DHT22;6042;41.326;19.826;2023-09-19T02:52:56;23.40;99.90
11965;DHT22;6042;41.326;19.826;2023-09-19T02:55:25;23.40;99.90
11965;DHT22;6042;41.326;19.826;2023-09-19T02:57:55;23.40;99.90
11965;DHT22;6042;41.326;19.826;2023-09-19T03:00:24;23.40;99.90
11965;DHT22;6042;41.326;19.826;2023-09-19T03:02:56;23.40;99.90
11965;DHT22;6042;41.326;19.826;2023-09-19T03:05:28;23.40;99.90
11965;DHT22;6042;41.326;19.826;2023-09-19T03:07:58;23.20;99.90
11965;DHT22;6042;41.326;19.826;2023-09-19T03:10:30;23.10;99.90
11965;DHT22;6042;41.326;19.826;2023-09-19T03:12:59;23.10;99.90
11965;DHT22;6042;41.326;19.826;2023-09-19T03:15:30;23.10;99.90
11965;DHT22;6042;41.326;19.826;2023-09-19T03:18:00;23.10;99.90
11965;DHT22;6042;41.326;19.826;2023-09-19T03:20:30;23.10;99.90
11965;DHT22;6042;41.326;19.826;2023-09-19T03:22:59;23.10;99.90
11965;DHT22;6042;41.326;19.826;2023-09-19T03:25:28;23.00;99.90
11965;DHT22;6042;41.326;19.826;2023-09-19T03:27:58;23.00;99.90
11965;DHT22;6042;41.326;19.826;2023-09-19T03:30:27;23.00;99.90
11965;DHT22;6042;41.326;19.826;2023-09-19T03:32:56;22.90;99.90
11965;DHT22;6042;41.326;19.826;2023-09-19T03:35:27;22.80;99.90
11965;DHT22;6042;41.326;19.826;2023-09-19T03:37:57;22.80;99.90
11965;DHT22;6042;41.326;19.826;2023-09-19T03:40:26;22.80;99.90
11965;DHT22;6042;41.326;19.826;2023-09-19T03:43:00;22.90;99.90
11965;DHT22;6042;41.326;19.826;2023-09-19T03:45:29;22.90;99.90
11965;DHT22;6042;41.326;19.826;2023-09-19T03:47:59;23.10;99.90
11965;DHT22;6042;41.326;19.826;2023-09-19T03:50:29;23.20;99.90
11965;DHT22;6042;41.326;19.826;2023-09-19T03:53:00;23.20;99.90
11965;DHT22;6042;41.326;19.826;2023-09-19T03:55:30;23.40;99.90
11965;DHT22;6042;41.326;19.826;2023-09-19T03:57:59;23.50;99.90
11965;DHT22;6042;41.326;19.826;2023-09-19T04:00:28;23.60;99.90
11965;DHT22;6042;41.326;19.826;2023-09-19T04:02:58;23.70;99.90
11965;DHT22;6042;41.326;19.826;2023-09-19T04:05:31;23.80;99.90
11965;DHT22;6042;41.326;19.826;2023-09-19T04:08:01;23.90;99.90
11965;DHT22;6042;41.326;19.826;2023-09-19T04:10:30;23.80;99.90
11965;DHT22;6042;41.326;19.826;2023-09-19T04:12:59;23.70;99.90
11965;DHT22;6042;41.326;19.826;2023-09-19T04:15:28;23.70;99.90
11965;DHT22;6042;41.326;19.826;2023-09-19T04:17:57;23.70;99.90
11965;DHT22;6042;41.326;19.826;2023-09-19T04:20:27;23.60;99.90
11965;DHT22;6042;41.326;19.826;2023-09-19T04:23:01;23.60;99.90
11965;DHT22;6042;41.326;19.826;2023-09-19T04:25:34;23.60;99.90
11965;DHT22;6042;41.326;19.826;2023-09-19T04:28:05;23.50;99.90
11965;DHT22;6042;41.326;19.826;2023-09-19T04:30:35;23.50;99.90
11965;DHT22;6042;41.326;19.826;2023-09-19T04:33:04;23.50;99.90
11965;DHT22;6042;41.326;19.826;2023-09-19T04:35:34;23.50;99.90
11965;DHT22;6042;41.326;19.826;2023-09-19T04:38:05;23.50;99.90
11965;DHT22;6042;41.326;19.826;2023-09-19T04:40:34;23.40;99.90
11965;DHT22;6042;41.326;19.826;2023-09-19T04:43:03;23.40;99.90
11965;DHT22;6042;41.326;19.826;2023-09-19T04:45:33;23.40;99.90
11965;DHT22;6042;41.326;19.826;2023-09-19T04:48:02;23.40;99.90
11965;DHT22;6042;41.326;19.826;2023-09-19T04:50:31;23.40;99.90
11965;DHT22;6042;41.326;19.826;2023-09-19T04:53:01;23.30;99.90
11965;DHT22;6042;41.326;19.826;2023-09-19T04:55:32;23.20;99.90
11965;DHT22;6042;41.326;19.826;2023-09-19T04:58:02;23.10;99.90
11965;DHT22;6042;41.326;19.826;2023-09-19T05:00:31;23.10;99.90
11965;DHT22;6042;41.326;19.826;2023-09-19T05:03:03;23.10;99.90
11965;DHT22;6042;41.326;19.826;2023-09-19T05:05:33;23.00;99.90
11965;DHT22;6042;41.326;19.826;2023-09-19T05:08:02;23.00;99.90
11965;DHT22;6042;41.326;19.826;2023-09-19T05:10:34;23.00;99.90
11965;DHT22;6042;41.326;19.826;2023-09-19T05:13:05;23.00;99.90
11965;DHT22;6042;41.326;19.826;2023-09-19T05:15:34;23.10;99.90
11965;DHT22;6042;41.326;19.826;2023-09-19T05:18:04;23.20;99.90
11965;DHT22;6042;41.326;19.826;2023-09-19T05:20:34;23.30;99.90
11965;DHT22;6042;41.326;19.826;2023-09-19T05:23:06;23.20;99.90
11965;DHT22;6042;41.326;19.826;2023-09-19T05:25:41;23.20;99.90
11965;DHT22;6042;41.326;19.826;2023-09-19T05:28:11;23.20;99.90
11965;DHT22;6042;41.326;19.826;2023-09-19T05:30:42;23.20;99.90
11965;DHT22;6042;41.326;19.826;2023-09-19T05:33:15;23.30;99.90
11965;DHT22;6042;41.326;19.826;2023-09-19T05:35:46;23.40;99.90
11965;DHT22;6042;41.326;19.826;2023-09-19T05:38:16;23.40;99.90
11965;DHT22;6042;41.326;19.826;2023-09-19T05:40:48;23.60;99.90
11965;DHT22;6042;41.326;19.826;2023-09-19T05:43:18;23.70;99.90
11965;DHT22;6042;41.326;19.826;2023-09-19T05:45:47;23.90;99.90
11965;DHT22;6042;41.326;19.826;2023-09-19T05:48:16;23.90;99.90
11965;DHT22;6042;41.326;19.826;2023-09-19T05:50:45;23.90;99.90
11965;DHT22;6042;41.326;19.826;2023-09-19T05:53:17;24.10;99.90
11965;DHT22;6042;41.326;19.826;2023-09-19T05:55:47;24.20;99.90
11965;DHT22;6042;41.326;19.826;2023-09-19T05:58:17;24.30;99.90
11965;DHT22;6042;41.326;19.826;2023-09-19T06:00:47;24.50;99.90
11965;DHT22;6042;41.326;19.826;2023-09-19T06:03:16;24.60;99.90
11965;DHT22;6042;41.326;19.826;2023-09-19T06:05:46;24.80;99.90
11965;DHT22;6042;41.326;19.826;2023-09-19T06:08:17;24.80;99.90
11965;DHT22;6042;41.326;19.826;2023-09-19T06:10:48;25.00;99.90
11965;DHT22;6042;41.326;19.826;2023-09-19T06:13:20;25.00;99.90
11965;DHT22;6042;41.326;19.826;2023-09-19T06:15:49;24.90;99.90
11965;DHT22;6042;41.326;19.826;2023-09-19T06:18:18;24.80;99.90
11965;DHT22;6042;41.326;19.826;2023-09-19T06:20:48;24.70;99.90
11965;DHT22;6042;41.326;19.826;2023-09-19T06:23:20;24.80;99.90
11965;DHT22;6042;41.326;19.826;2023-09-19T06:25:51;24.90;99.90
11965;DHT22;6042;41.326;19.826;2023-09-19T06:28:20;25.10;99.90
11965;DHT22;6042;41.326;19.826;2023-09-19T06:30:52;25.20;99.80
11965;DHT22;6042;41.326;19.826;2023-09-19T06:33:21;25.20;99.60
11965;DHT22;6042;41.326;19.826;2023-09-19T06:35:50;25.10;99.60
11965;DHT22;6042;41.326;19.826;2023-09-19T06:38:20;25.20;99.80
11965;DHT22;6042;41.326;19.826;2023-09-19T06:40:53;25.20;99.60
11965;DHT22;6042;41.326;19.826;2023-09-19T06:43:23;25.30;99.70
11965;DHT22;6042;41.326;19.826;2023-09-19T06:45:53;25.40;99.50
11965;DHT22;6042;41.326;19.826;2023-09-19T06:48:23;25.60;99.30
11965;DHT22;6042;41.326;19.826;2023-09-19T06:50:54;25.60;99.00
11965;DHT22;6042;41.326;19.826;2023-09-19T06:53:23;25.60;99.00
11965;DHT22;6042;41.326;19.826;2023-09-19T06:55:53;25.70;99.10
11965;DHT22;6042;41.326;19.826;2023-09-19T06:58:23;25.70;98.80
11965;DHT22;6042;41.326;19.826;2023-09-19T07:00:52;25.60;98.90
11965;DHT22;6042;41.326;19.826;2023-09-19T07:03:21;25.70;98.70
11965;DHT22;6042;41.326;19.826;2023-09-19T07:05:53;25.80;98.60
11965;DHT22;6042;41.326;19.826;2023-09-19T07:08:23;25.70;98.70
11965;DHT22;6042;41.326;19.826;2023-09-19T07:10:53;25.70;98.80
11965;DHT22;6042;41.326;19.826;2023-09-19T07:13:25;25.70;98.70
11965;DHT22;6042;41.326;19.826;2023-09-19T07:15:54;25.80;98.70
11965;DHT22;6042;41.326;19.826;2023-09-19T07:18:25;25.80;99.10
11965;DHT22;6042;41.326;19.826;2023-09-19T07:20:57;25.90;98.70
11965;DHT22;6042;41.326;19.826;2023-09-19T07:23:28;25.90;98.80
11965;DHT22;6042;41.326;19.826;2023-09-19T07:26:03;25.80;98.20
11965;DHT22;6042;41.326;19.826;2023-09-19T07:28:33;25.90;98.10
11965;DHT22;6042;41.326;19.826;2023-09-19T07:31:04;26.00;98.00
11965;DHT22;6042;41.326;19.826;2023-09-19T07:33:34;26.00;97.80
11965;DHT22;6042;41.326;19.826;2023-09-19T07:36:03;26.00;98.40
11965;DHT22;6042;41.326;19.826;2023-09-19T07:38:33;26.20;97.90
11965;DHT22;6042;41.326;19.826;2023-09-19T07:41:04;26.40;98.00
11965;DHT22;6042;41.326;19.826;2023-09-19T07:43:33;26.50;98.00
11965;DHT22;6042;41.326;19.826;2023-09-19T07:46:05;26.50;98.20
11965;DHT22;6042;41.326;19.826;2023-09-19T07:48:36;26.50;98.20
11965;DHT22;6042;41.326;19.826;2023-09-19T07:51:06;26.70;98.00
11965;DHT22;6042;41.326;19.826;2023-09-19T07:53:36;26.80;97.60
11965;DHT22;6042;41.326;19.826;2023-09-19T07:56:09;26.80;96.40
11965;DHT22;6042;41.326;19.826;2023-09-19T07:58:39;26.80;96.40
11965;DHT22;6042;41.326;19.826;2023-09-19T08:01:11;26.90;95.90
11965;DHT22;6042;41.326;19.826;2023-09-19T08:03:44;27.00;96.00
11965;DHT22;6042;41.326;19.826;2023-09-19T08:06:13;27.30;95.30
11965;DHT22;6042;41.326;19.826;2023-09-19T08:08:42;27.40;94.60
11965;DHT22;6042;41.326;19.826;2023-09-19T08:11:13;27.50;94.00
11965;DHT22;6042;41.326;19.826;2023-09-19T08:13:48;27.60;94.20
11965;DHT22;6042;41.326;19.826;2023-09-19T08:16:17;27.70;94.10
11965;DHT22;6042;41.326;19.826;2023-09-19T08:18:48;27.80;93.80
11965;DHT22;6042;41.326;19.826;2023-09-19T08:21:23;28.00;93.50
11965;DHT22;6042;41.326;19.826;2023-09-19T08:23:53;28.20;93.10
11965;DHT22;6042;41.326;19.826;2023-09-19T08:26:23;28.30;92.90
11965;DHT22;6042;41.326;19.826;2023-09-19T08:28:52;28.50;93.00
11965;DHT22;6042;41.326;19.826;2023-09-19T08:31:23;28.50;92.80
11965;DHT22;6042;41.326;19.826;2023-09-19T08:33:53;28.70;92.60
11965;DHT22;6042;41.326;19.826;2023-09-19T08:36:23;28.80;92.50
11965;DHT22;6042;41.326;19.826;2023-09-19T08:38:52;28.90;92.50
11965;DHT22;6042;41.326;19.826;2023-09-19T08:41:23;29.00;92.20
11965;DHT22;6042;41.326;19.826;2023-09-19T08:43:52;28.90;92.50
11965;DHT22;6042;41.326;19.826;2023-09-19T08:46:22;28.80;92.40
11965;DHT22;6042;41.326;19.826;2023-09-19T08:49:00;28.80;92.40
11965;DHT22;6042;41.326;19.826;2023-09-19T08:51:39;28.80;92.70
11965;DHT22;6042;41.326;19.826;2023-09-19T08:54:08;28.90;92.40
11965;DHT22;6042;41.326;19.826;2023-09-19T08:56:43;29.00;92.00
11965;DHT22;6042;41.326;19.826;2023-09-19T08:59:14;29.20;92.00
11965;DHT22;6042;41.326;19.826;2023-09-19T09:01:44;29.30;91.90
11965;DHT22;6042;41.326;19.826;2023-09-19T09:04:14;29.40;91.80
11965;DHT22;6042;41.326;19.826;2023-09-19T09:06:44;29.50;91.70
11965;DHT22;6042;41.326;19.826;2023-09-19T09:09:16;29.70;91.10
11965;DHT22;6042;41.326;19.826;2023-09-19T09:11:48;29.70;90.90
11965;DHT22;6042;41.326;19.826;2023-09-19T09:14:20;29.70;90.90
11965;DHT22;6042;41.326;19.826;2023-09-19T10:09:46;30.30;87.30
11965;DHT22;6042;41.326;19.826;2023-09-19T10:12:19;30.50;86.30
11965;DHT22;6042;41.326;19.826;2023-09-19T10:14:49;30.70;85.00
11965;DHT22;6042;41.326;19.826;2023-09-19T10:17:19;30.80;85.10
11965;DHT22;6042;41.326;19.826;2023-09-19T10:19:55;30.90;84.60
11965;DHT22;6042;41.326;19.826;2023-09-19T10:22:26;30.90;84.50
11965;DHT22;6042;41.326;19.826;2023-09-19T10:25:01;31.10;83.80
11965;DHT22;6042;41.326;19.826;2023-09-19T10:27:31;31.20;83.60
11965;DHT22;6042;41.326;19.826;2023-09-19T10:30:06;31.30;83.20
11965;DHT22;6042;41.326;19.826;2023-09-19T10:32:40;31.30;83.40
11965;DHT22;6042;41.326;19.826;2023-09-19T10:35:12;31.40;83.20
11965;DHT22;6042;41.326;19.826;2023-09-19T10:37:45;31.50;82.60
11965;DHT22;6042;41.326;19.826;2023-09-19T10:40:18;31.60;81.80
11965;DHT22;6042;41.326;19.826;2023-09-19T10:42:54;31.70;81.40
11965;DHT22;6042;41.326;19.826;2023-09-19T10:45:24;31.80;81.70
11965;DHT22;6042;41.326;19.826;2023-09-19T10:47:53;31.80;81.50
11965;DHT22;6042;41.326;19.826;2023-09-19T10:50:24;32.00;80.20
11965;DHT22;6042;41.326;19.826;2023-09-19T10:52:54;32.10;79.30
11965;DHT22;6042;41.326;19.826;2023-09-19T10:55:30;31.80;79.20
11965;DHT22;6042;41.326;19.826;2023-09-19T10:58:00;31.90;79.00
11965;DHT22;6042;41.326;19.826;2023-09-19T11:00:30;32.00;78.50
11965;DHT22;6042;41.326;19.826;2023-09-19T11:03:19;32.40;76.70
11965;DHT22;6042;41.326;19.826;2023-09-19T11:06:11;32.50;75.20
11965;DHT22;6042;41.326;19.826;2023-09-19T11:09:01;32.70;74.50
11965;DHT22;6042;41.326;19.826;2023-09-19T11:11:46;32.70;72.90
11965;DHT22;6042;41.326;19.826;2023-09-19T11:14:40;32.80;72.80
11965;DHT22;6042;41.326;19.826;2023-09-19T11:17:42;32.90;73.70
11965;DHT22;6042;41.326;19.826;2023-09-19T11:20:21;32.80;76.20
11965;DHT22;6042;41.326;19.826;2023-09-19T11:23:23;32.90;76.10
11965;DHT22;6042;41.326;19.826;2023-09-19T11:25:54;33.10;75.10
11965;DHT22;6042;41.326;19.826;2023-09-19T11:28:31;33.30;74.80
11965;DHT22;6042;41.326;19.826;2023-09-19T11:34:49;33.30;73.50
11965;DHT22;6042;41.326;19.826;2023-09-19T11:40:46;33.30;70.10
11965;DHT22;6042;41.326;19.826;2023-09-19T11:43:33;33.20;72.80
11965;DHT22;6042;41.326;19.826;2023-09-19T11:46:04;33.10;73.40
11965;DHT22;6042;41.326;19.826;2023-09-19T11:48:34;33.20;73.70
11965;DHT22;6042;41.326;19.826;2023-09-19T11:51:18;33.20;73.60
11965;DHT22;6042;41.326;19.826;2023-09-19T11:53:50;33.10;73.20
11965;DHT22;6042;41.326;19.826;2023-09-19T11:56:20;33.10;73.40
11965;DHT22;6042;41.326;19.826;2023-09-19T11:58:55;33.30;73.50
11965;DHT22;6042;41.326;19.826;2023-09-19T12:01:29;33.30;73.60
11965;DHT22;6042;41.326;19.826;2023-09-19T12:04:00;33.30;74.50
11965;DHT22;6042;41.326;19.826;2023-09-19T12:06:30;33.20;75.10
11965;DHT22;6042;41.326;19.826;2023-09-19T12:09:00;33.30;75.10
11965;DHT22;6042;41.326;19.826;2023-09-19T12:11:31;33.40;74.70
11965;DHT22;6042;41.326;19.826;2023-09-19T12:14:06;33.50;74.80
11965;DHT22;6042;41.326;19.826;2023-09-19T12:16:35;33.50;75.30
11965;DHT22;6042;41.326;19.826;2023-09-19T12:19:21;33.40;75.60
11965;DHT22;6042;41.326;19.826;2023-09-19T12:21:58;33.40;76.20
11965;DHT22;6042;41.326;19.826;2023-09-19T12:24:32;33.20;76.30
11965;DHT22;6042;41.326;19.826;2023-09-19T12:27:05;33.00;76.60
11965;DHT22;6042;41.326;19.826;2023-09-19T12:29:44;32.90;76.80
11965;DHT22;6042;41.326;19.826;2023-09-19T12:32:12;32.70;77.40
11965;DHT22;6042;41.326;19.826;2023-09-19T12:34:51;32.90;77.20
11965;DHT22;6042;41.326;19.826;2023-09-19T12:37:22;33.10;76.90
11965;DHT22;6042;41.326;19.826;2023-09-19T12:40:04;33.20;76.50
11965;DHT22;6042;41.326;19.826;2023-09-19T12:42:42;33.10;77.10
11965;DHT22;6042;41.326;19.826;2023-09-19T12:45:14;33.20;77.40
11965;DHT22;6042;41.326;19.826;2023-09-19T12:48:18;33.20;77.50
11965;DHT22;6042;41.326;19.826;2023-09-19T12:51:05;33.10;78.40
11965;DHT22;6042;41.326;19.826;2023-09-19T12:53:37;33.20;77.60
11965;DHT22;6042;41.326;19.826;2023-09-19T12:56:09;33.40;77.40
11965;DHT22;6042;41.326;19.826;2023-09-19T12:58:52;33.40;76.70
11965;DHT22;6042;41.326;19.826;2023-09-19T13:01:24;33.40;77.30
11965;DHT22;6042;41.326;19.826;2023-09-19T13:04:12;33.30;77.90
11965;DHT22;6042;41.326;19.826;2023-09-19T13:06:46;33.10;78.20
11965;DHT22;6042;41.326;19.826;2023-09-19T13:09:17;33.00;78.10
11965;DHT22;6042;41.326;19.826;2023-09-19T13:11:48;33.10;77.80
11965;DHT22;6042;41.326;19.826;2023-09-19T13:14:19;33.20;77.60
11965;DHT22;6042;41.326;19.826;2023-09-19T13:16:57;33.20;76.90
11965;DHT22;6042;41.326;19.826;2023-09-19T13:19:40;33.30;76.90
11965;DHT22;6042;41.326;19.826;2023-09-19T13:22:42;33.20;76.40
11965;DHT22;6042;41.326;19.826;2023-09-19T13:25:15;32.90;76.70
11965;DHT22;6042;41.326;19.826;2023-09-19T13:27:47;33.00;76.30
11965;DHT22;6042;41.326;19.826;2023-09-19T13:30:21;33.30;75.40
11965;DHT22;6042;41.326;19.826;2023-09-19T13:32:52;33.50;74.90
11965;DHT22;6042;41.326;19.826;2023-09-19T13:35:21;33.90;73.80
11965;DHT22;6042;41.326;19.826;2023-09-19T13:37:50;34.30;72.40
11965;DHT22;6042;41.326;19.826;2023-09-19T13:40:19;34.60;72.00
11965;DHT22;6042;41.326;19.826;2023-09-19T13:42:48;35.00;70.30
11965;DHT22;6042;41.326;19.826;2023-09-19T13:45:20;35.10;70.00
11965;DHT22;6042;41.326;19.826;2023-09-19T13:47:53;35.30;70.00
11965;DHT22;6042;41.326;19.826;2023-09-19T13:50:22;36.00;69.90
11965;DHT22;6042;41.326;19.826;2023-09-19T13:52:51;36.50;68.60
11965;DHT22;6042;41.326;19.826;2023-09-19T13:55:21;37.10;66.10
11965;DHT22;6042;41.326;19.826;2023-09-19T13:57:50;36.70;66.20
11965;DHT22;6042;41.326;19.826;2023-09-19T14:00:22;36.60;66.40
11965;DHT22;6042;41.326;19.826;2023-09-19T14:02:52;36.40;66.50
11965;DHT22;6042;41.326;19.826;2023-09-19T14:05:21;36.80;66.00
11965;DHT22;6042;41.326;19.826;2023-09-19T14:07:50;37.10;65.50
11965;DHT22;6042;41.326;19.826;2023-09-19T14:10:19;36.80;65.80
11965;DHT22;6042;41.326;19.826;2023-09-19T14:12:47;37.10;65.80
11965;DHT22;6042;41.326;19.826;2023-09-19T14:15:17;37.90;64.70
11965;DHT22;6042;41.326;19.826;2023-09-19T14:17:46;38.60;63.80
11965;DHT22;6042;41.326;19.826;2023-09-19T14:20:16;38.20;62.60
11965;DHT22;6042;41.326;19.826;2023-09-19T14:22:45;37.10;64.30
11965;DHT22;6042;41.326;19.826;2023-09-19T14:25:14;35.80;67.50
11965;DHT22;6042;41.326;19.826;2023-09-19T14:27:42;34.80;70.10
11965;DHT22;6042;41.326;19.826;2023-09-19T14:30:12;34.00;72.70
11965;DHT22;6042;41.326;19.826;2023-09-19T14:32:41;33.30;74.60
11965;DHT22;6042;41.326;19.826;2023-09-19T14:35:09;32.90;75.80
11965;DHT22;6042;41.326;19.826;2023-09-19T14:37:42;32.70;76.70
11965;DHT22;6042;41.326;19.826;2023-09-19T14:40:12;32.30;77.80
11965;DHT22;6042;41.326;19.826;2023-09-19T14:42:44;32.10;78.90
11965;DHT22;6042;41.326;19.826;2023-09-19T14:45:15;31.90;79.20
11965;DHT22;6042;41.326;19.826;2023-09-19T14:47:46;31.70;79.90
11965;DHT22;6042;41.326;19.826;2023-09-19T14:50:15;31.60;80.60
11965;DHT22;6042;41.326;19.826;2023-09-19T14:52:46;31.70;81.00
11965;DHT22;6042;41.326;19.826;2023-09-19T14:55:16;31.60;81.20
11965;DHT22;6042;41.326;19.826;2023-09-19T14:57:49;31.70;81.60
11965;DHT22;6042;41.326;19.826;2023-09-19T15:00:19;31.70;81.10
11965;DHT22;6042;41.326;19.826;2023-09-19T15:02:50;31.50;81.70
11965;DHT22;6042;41.326;19.826;2023-09-19T15:05:21;31.50;81.80
11965;DHT22;6042;41.326;19.826;2023-09-19T15:07:51;31.40;82.30
11965;DHT22;6042;41.326;19.826;2023-09-19T15:10:20;31.30;83.00
11965;DHT22;6042;41.326;19.826;2023-09-19T15:12:49;31.40;83.20
11965;DHT22;6042;41.326;19.826;2023-09-19T15:15:19;31.40;82.20
11965;DHT22;6042;41.326;19.826;2023-09-19T15:17:47;31.30;82.60
11965;DHT22;6042;41.326;19.826;2023-09-19T15:20:16;31.20;83.00
11965;DHT22;6042;41.326;19.826;2023-09-19T15:22:45;31.10;83.10
11965;DHT22;6042;41.326;19.826;2023-09-19T15:25:16;30.80;83.80
11965;DHT22;6042;41.326;19.826;2023-09-19T15:27:45;30.80;83.70
11965;DHT22;6042;41.326;19.826;2023-09-19T15:30:14;30.70;83.60
11965;DHT22;6042;41.326;19.826;2023-09-19T15:32:43;30.70;83.70
11965;DHT22;6042;41.326;19.826;2023-09-19T15:35:12;30.60;83.80
11965;DHT22;6042;41.326;19.826;2023-09-19T15:37:44;30.60;83.70
11965;DHT22;6042;41.326;19.826;2023-09-19T15:40:14;30.40;84.30
11965;DHT22;6042;41.326;19.826;2023-09-19T15:42:44;30.30;84.60
11965;DHT22;6042;41.326;19.826;2023-09-19T15:45:12;30.20;84.90
11965;DHT22;6042;41.326;19.826;2023-09-19T15:47:42;30.10;85.50
11965;DHT22;6042;41.326;19.826;2023-09-19T15:50:11;30.00;85.80
11965;DHT22;6042;41.326;19.826;2023-09-19T15:52:41;29.90;87.00
11965;DHT22;6042;41.326;19.826;2023-09-19T15:55:12;29.90;86.80
11965;DHT22;6042;41.326;19.826;2023-09-19T15:57:43;29.90;87.00
11965;DHT22;6042;41.326;19.826;2023-09-19T16:00:13;29.90;86.70
11965;DHT22;6042;41.326;19.826;2023-09-19T16:02:45;29.90;86.70
11965;DHT22;6042;41.326;19.826;2023-09-19T16:05:17;29.70;87.30
11965;DHT22;6042;41.326;19.826;2023-09-19T16:07:46;29.50;88.80
11965;DHT22;6042;41.326;19.826;2023-09-19T16:10:16;29.40;89.90
11965;DHT22;6042;41.326;19.826;2023-09-19T16:12:46;29.30;90.30
11965;DHT22;6042;41.326;19.826;2023-09-19T16:15:15;29.30;90.10
11965;DHT22;6042;41.326;19.826;2023-09-19T16:17:43;29.30;90.20
11965;DHT22;6042;41.326;19.826;2023-09-19T16:20:12;29.30;90.20
11965;DHT22;6042;41.326;19.826;2023-09-19T16:22:45;29.20;90.40
11965;DHT22;6042;41.326;19.826;2023-09-19T16:25:15;29.10;90.60
11965;DHT22;6042;41.326;19.826;2023-09-19T16:27:43;29.00;90.90
11965;DHT22;6042;41.326;19.826;2023-09-19T16:30:14;28.90;91.20
11965;DHT22;6042;41.326;19.826;2023-09-19T16:32:43;28.80;91.30
11965;DHT22;6042;41.326;19.826;2023-09-19T16:35:11;28.90;91.50
11965;DHT22;6042;41.326;19.826;2023-09-19T16:37:40;28.90;91.60
11965;DHT22;6042;41.326;19.826;2023-09-19T16:40:09;28.90;91.50
11965;DHT22;6042;41.326;19.826;2023-09-19T16:42:38;28.70;91.60
11965;DHT22;6042;41.326;19.826;2023-09-19T16:45:08;28.70;91.70
11965;DHT22;6042;41.326;19.826;2023-09-19T16:47:39;28.70;91.80
11965;DHT22;6042;41.326;19.826;2023-09-19T16:50:08;28.70;91.70
11965;DHT22;6042;41.326;19.826;2023-09-19T16:52:38;28.50;92.00
11965;DHT22;6042;41.326;19.826;2023-09-19T16:55:07;28.50;92.10
11965;DHT22;6042;41.326;19.826;2023-09-19T16:57:37;28.50;92.00
11965;DHT22;6042;41.326;19.826;2023-09-19T17:00:07;28.50;92.00